sensor_id;sensor_type;location;lat;lon;timestamp;P1;durP1;ratioP1;P2;durP2;ratioP2
31848;SDS011;18414;59.352;18.152;2022-10-31T00:00:13;5.77;;;3.10;;
31848;SDS011;18414;59.352;18.152;2022-10-31T00:02:38;4.97;;;2.77;;
31848;SDS011;18414;59.352;18.152;2022-10-31T00:05:04;4.97;;;2.83;;
31848;SDS011;18414;59.352;18.152;2022-10-31T00:07:29;3.97;;;2.80;;
31848;SDS011;18414;59.352;18.152;2022-10-31T00:09:55;4.27;;;2.63;;
31848;SDS011;18414;59.352;18.152;2022-10-31T00:12:22;5.43;;;3.10;;
31848;SDS011;18414;59.352;18.152;2022-10-31T00:14:47;6.97;;;2.80;;
31848;SDS011;18414;59.352;18.152;2022-10-31T00:17:13;4.50;;;2.83;;
31848;SDS011;18414;59.352;18.152;2022-10-31T00:19:38;5.63;;;2.90;;
31848;SDS011;18414;59.352;18.152;2022-10-31T00:22:03;4.27;;;2.57;;
31848;SDS011;18414;59.352;18.152;2022-10-31T00:24:29;4.63;;;2.73;;
31848;SDS011;18414;59.352;18.152;2022-10-31T00:26:54;5.07;;;2.80;;
31848;SDS011;18414;59.352;18.152;2022-10-31T00:29:19;6.27;;;2.80;;
31848;SDS011;18414;59.352;18.152;2022-10-31T00:31:45;4.73;;;2.93;;
31848;SDS011;18414;59.352;18.152;2022-10-31T00:34:10;6.50;;;3.00;;
31848;SDS011;18414;59.352;18.152;2022-10-31T00:36:35;4.33;;;2.70;;
31848;SDS011;18414;59.352;18.152;2022-10-31T00:39:01;5.50;;;2.50;;
31848;SDS011;18414;59.352;18.152;2022-10-31T00:41:26;6.10;;;3.23;;
31848;SDS011;18414;59.352;18.152;2022-10-31T00:43:51;6.70;;;2.80;;
31848;SDS011;18414;59.352;18.152;2022-10-31T00:46:17;5.67;;;2.57;;
31848;SDS011;18414;59.352;18.152;2022-10-31T00:48:45;5.03;;;2.97;;
31848;SDS011;18414;59.352;18.152;2022-10-31T00:51:10;5.97;;;2.67;;
31848;SDS011;18414;59.352;18.152;2022-10-31T00:53:36;4.80;;;2.80;;
31848;SDS011;18414;59.352;18.152;2022-10-31T00:56:01;4.33;;;2.70;;
31848;SDS011;18414;59.352;18.152;2022-10-31T00:58:27;6.90;;;3.00;;
31848;SDS011;18414;59.352;18.152;2022-10-31T01:00:52;8.43;;;2.97;;
31848;SDS011;18414;59.352;18.152;2022-10-31T01:03:21;5.10;;;2.93;;
31848;SDS011;18414;59.352;18.152;2022-10-31T01:05:57;4.83;;;2.93;;
31848;SDS011;18414;59.352;18.152;2022-10-31T01:08:24;4.67;;;2.67;;
31848;SDS011;18414;59.352;18.152;2022-10-31T01:11:03;7.47;;;2.80;;
31848;SDS011;18414;59.352;18.152;2022-10-31T01:13:30;4.90;;;2.70;;
31848;SDS011;18414;59.352;18.152;2022-10-31T01:15:56;4.77;;;2.77;;
31848;SDS011;18414;59.352;18.152;2022-10-31T01:18:22;6.43;;;3.97;;
31848;SDS011;18414;59.352;18.152;2022-10-31T01:20:56;6.23;;;2.70;;
31848;SDS011;18414;59.352;18.152;2022-10-31T01:23:25;6.30;;;2.70;;
31848;SDS011;18414;59.352;18.152;2022-10-31T01:25:58;5.40;;;2.73;;
31848;SDS011;18414;59.352;18.152;2022-10-31T01:28:25;6.27;;;2.60;;
31848;SDS011;18414;59.352;18.152;2022-10-31T01:30:50;4.13;;;2.80;;
31848;SDS011;18414;59.352;18.152;2022-10-31T01:33:16;6.40;;;3.03;;
31848;SDS011;18414;59.352;18.152;2022-10-31T01:35:41;4.30;;;2.33;;
31848;SDS011;18414;59.352;18.152;2022-10-31T01:38:06;6.30;;;2.80;;
31848;SDS011;18414;59.352;18.152;2022-10-31T01:40:32;4.80;;;2.43;;
31848;SDS011;18414;59.352;18.152;2022-10-31T01:42:57;5.10;;;3.00;;
31848;SDS011;18414;59.352;18.152;2022-10-31T01:45:22;5.90;;;3.03;;
31848;SDS011;18414;59.352;18.152;2022-10-31T01:47:48;4.93;;;2.93;;
31848;SDS011;18414;59.352;18.152;2022-10-31T01:50:19;5.10;;;3.00;;
31848;SDS011;18414;59.352;18.152;2022-10-31T01:52:51;3.77;;;3.03;;
31848;SDS011;18414;59.352;18.152;2022-10-31T01:55:22;5.90;;;2.90;;
31848;SDS011;18414;59.352;18.152;2022-10-31T01:57:50;5.33;;;2.90;;
31848;SDS011;18414;59.352;18.152;2022-10-31T02:00:17;5.13;;;2.67;;
31848;SDS011;18414;59.352;18.152;2022-10-31T02:02:44;5.23;;;2.93;;
31848;SDS011;18414;59.352;18.152;2022-10-31T02:05:12;3.47;;;2.23;;
31848;SDS011;18414;59.352;18.152;2022-10-31T02:07:46;3.73;;;2.10;;
31848;SDS011;18414;59.352;18.152;2022-10-31T02:10:17;4.53;;;2.30;;
31848;SDS011;18414;59.352;18.152;2022-10-31T02:12:44;2.97;;;2.10;;
31848;SDS011;18414;59.352;18.152;2022-10-31T02:15:09;2.73;;;2.17;;
31848;SDS011;18414;59.352;18.152;2022-10-31T02:17:35;6.30;;;2.00;;
31848;SDS011;18414;59.352;18.152;2022-10-31T02:20:22;3.73;;;1.97;;
31848;SDS011;18414;59.352;18.152;2022-10-31T02:33:57;5.80;;;1.90;;
31848;SDS011;18414;59.352;18.152;2022-10-31T02:44:44;3.87;;;1.97;;
31848;SDS011;18414;59.352;18.152;2022-10-31T02:47:19;6.47;;;2.00;;
31848;SDS011;18414;59.352;18.152;2022-10-31T02:49:48;4.53;;;2.27;;
31848;SDS011;18414;59.352;18.152;2022-10-31T02:52:20;3.23;;;2.00;;
31848;SDS011;18414;59.352;18.152;2022-10-31T02:54:46;2.97;;;1.90;;
31848;SDS011;18414;59.352;18.152;2022-10-31T02:57:12;6.03;;;2.17;;
31848;SDS011;18414;59.352;18.152;2022-10-31T02:59:39;2.50;;;1.73;;
31848;SDS011;18414;59.352;18.152;2022-10-31T03:07:41;2.10;;;1.87;;
31848;SDS011;18414;59.352;18.152;2022-10-31T03:10:47;4.60;;;2.13;;
31848;SDS011;18414;59.352;18.152;2022-10-31T03:16:09;3.93;;;2.00;;
31848;SDS011;18414;59.352;18.152;2022-10-31T03:19:22;3.00;;;2.00;;
31848;SDS011;18414;59.352;18.152;2022-10-31T03:21:44;3.43;;;2.17;;
31848;SDS011;18414;59.352;18.152;2022-10-31T03:24:11;4.87;;;2.13;;
31848;SDS011;18414;59.352;18.152;2022-10-31T03:26:38;4.47;;;2.20;;
31848;SDS011;18414;59.352;18.152;2022-10-31T03:29:07;2.60;;;1.57;;
31848;SDS011;18414;59.352;18.152;2022-10-31T03:31:36;4.83;;;2.30;;
31848;SDS011;18414;59.352;18.152;2022-10-31T03:34:05;2.70;;;2.17;;
31848;SDS011;18414;59.352;18.152;2022-10-31T03:36:31;3.77;;;2.00;;
31848;SDS011;18414;59.352;18.152;2022-10-31T03:38:58;3.20;;;1.93;;
31848;SDS011;18414;59.352;18.152;2022-10-31T03:41:27;5.40;;;1.90;;
31848;SDS011;18414;59.352;18.152;2022-10-31T03:43:55;2.90;;;2.40;;
31848;SDS011;18414;59.352;18.152;2022-10-31T03:46:24;4.00;;;2.17;;
31848;SDS011;18414;59.352;18.152;2022-10-31T03:48:50;4.50;;;1.90;;
31848;SDS011;18414;59.352;18.152;2022-10-31T03:53:45;4.50;;;1.83;;
31848;SDS011;18414;59.352;18.152;2022-10-31T03:56:20;5.30;;;2.37;;
31848;SDS011;18414;59.352;18.152;2022-10-31T03:58:55;3.90;;;2.27;;
31848;SDS011;18414;59.352;18.152;2022-10-31T04:01:25;3.83;;;2.20;;
31848;SDS011;18414;59.352;18.152;2022-10-31T04:03:51;3.90;;;1.93;;
31848;SDS011;18414;59.352;18.152;2022-10-31T04:06:18;2.27;;;1.80;;
31848;SDS011;18414;59.352;18.152;2022-10-31T04:08:54;3.40;;;1.80;;
31848;SDS011;18414;59.352;18.152;2022-10-31T04:11:23;2.93;;;1.80;;
31848;SDS011;18414;59.352;18.152;2022-10-31T04:13:51;5.60;;;2.10;;
31848;SDS011;18414;59.352;18.152;2022-10-31T04:16:17;2.30;;;1.70;;
31848;SDS011;18414;59.352;18.152;2022-10-31T04:18:42;3.30;;;1.43;;
31848;SDS011;18414;59.352;18.152;2022-10-31T04:21:08;5.17;;;2.10;;
31848;SDS011;18414;59.352;18.152;2022-10-31T04:23:34;7.37;;;2.17;;
31848;SDS011;18414;59.352;18.152;2022-10-31T04:26:00;4.00;;;2.10;;
31848;SDS011;18414;59.352;18.152;2022-10-31T04:28:25;5.50;;;2.30;;
31848;SDS011;18414;59.352;18.152;2022-10-31T04:30:51;1.90;;;1.40;;
31848;SDS011;18414;59.352;18.152;2022-10-31T04:33:17;1.30;;;1.20;;
31848;SDS011;18414;59.352;18.152;2022-10-31T04:35:42;3.13;;;1.43;;
31848;SDS011;18414;59.352;18.152;2022-10-31T04:38:08;5.57;;;1.70;;
31848;SDS011;18414;59.352;18.152;2022-10-31T04:40:33;5.50;;;1.60;;
31848;SDS011;18414;59.352;18.152;2022-10-31T04:42:59;5.20;;;1.80;;
31848;SDS011;18414;59.352;18.152;2022-10-31T04:45:24;1.83;;;1.23;;
31848;SDS011;18414;59.352;18.152;2022-10-31T04:47:50;3.20;;;1.57;;
31848;SDS011;18414;59.352;18.152;2022-10-31T04:50:15;3.70;;;1.33;;
31848;SDS011;18414;59.352;18.152;2022-10-31T04:52:44;4.27;;;1.87;;
31848;SDS011;18414;59.352;18.152;2022-10-31T04:55:11;3.70;;;1.80;;
31848;SDS011;18414;59.352;18.152;2022-10-31T04:57:43;2.67;;;1.40;;
31848;SDS011;18414;59.352;18.152;2022-10-31T05:00:10;5.07;;;2.03;;
31848;SDS011;18414;59.352;18.152;2022-10-31T05:02:46;1.73;;;1.00;;
31848;SDS011;18414;59.352;18.152;2022-10-31T05:05:19;2.87;;;1.60;;
31848;SDS011;18414;59.352;18.152;2022-10-31T05:07:47;7.93;;;2.77;;
31848;SDS011;18414;59.352;18.152;2022-10-31T05:10:23;4.37;;;2.10;;
31848;SDS011;18414;59.352;18.152;2022-10-31T05:12:59;8.27;;;2.90;;
31848;SDS011;18414;59.352;18.152;2022-10-31T05:15:26;4.43;;;2.27;;
31848;SDS011;18414;59.352;18.152;2022-10-31T05:17:52;13.47;;;3.90;;
31848;SDS011;18414;59.352;18.152;2022-10-31T05:20:18;20.63;;;4.03;;
31848;SDS011;18414;59.352;18.152;2022-10-31T05:22:45;39.97;;;4.23;;
31848;SDS011;18414;59.352;18.152;2022-10-31T05:25:12;91.80;;;4.50;;
31848;SDS011;18414;59.352;18.152;2022-10-31T05:27:42;84.90;;;4.97;;
31848;SDS011;18414;59.352;18.152;2022-10-31T05:30:09;118.10;;;6.40;;
31848;SDS011;18414;59.352;18.152;2022-10-31T05:32:39;125.67;;;5.53;;
31848;SDS011;18414;59.352;18.152;2022-10-31T05:35:06;118.37;;;5.37;;
31848;SDS011;18414;59.352;18.152;2022-10-31T05:37:33;100.97;;;5.10;;
31848;SDS011;18414;59.352;18.152;2022-10-31T05:40:00;104.37;;;6.30;;
31848;SDS011;18414;59.352;18.152;2022-10-31T05:42:26;135.37;;;5.80;;
31848;SDS011;18414;59.352;18.152;2022-10-31T05:44:51;64.67;;;3.90;;
31848;SDS011;18414;59.352;18.152;2022-10-31T05:47:16;59.60;;;4.17;;
31848;SDS011;18414;59.352;18.152;2022-10-31T05:49:42;69.60;;;4.17;;
31848;SDS011;18414;59.352;18.152;2022-10-31T05:52:07;72.30;;;5.00;;
31848;SDS011;18414;59.352;18.152;2022-10-31T05:54:32;70.60;;;4.23;;
31848;SDS011;18414;59.352;18.152;2022-10-31T05:56:58;58.60;;;4.13;;
31848;SDS011;18414;59.352;18.152;2022-10-31T05:59:23;38.03;;;3.97;;
31848;SDS011;18414;59.352;18.152;2022-10-31T06:01:48;57.77;;;3.57;;
31848;SDS011;18414;59.352;18.152;2022-10-31T06:04:14;65.63;;;4.43;;
31848;SDS011;18414;59.352;18.152;2022-10-31T06:06:39;53.70;;;3.57;;
31848;SDS011;18414;59.352;18.152;2022-10-31T06:09:04;42.70;;;3.60;;
31848;SDS011;18414;59.352;18.152;2022-10-31T06:11:30;36.93;;;3.60;;
31848;SDS011;18414;59.352;18.152;2022-10-31T06:13:55;44.27;;;3.30;;
31848;SDS011;18414;59.352;18.152;2022-10-31T06:16:20;26.70;;;3.23;;
31848;SDS011;18414;59.352;18.152;2022-10-31T06:18:46;32.90;;;3.10;;
31848;SDS011;18414;59.352;18.152;2022-10-31T06:21:12;42.13;;;3.53;;
31848;SDS011;18414;59.352;18.152;2022-10-31T06:23:37;29.87;;;3.40;;
31848;SDS011;18414;59.352;18.152;2022-10-31T06:26:03;18.50;;;3.57;;
31848;SDS011;18414;59.352;18.152;2022-10-31T06:28:28;38.97;;;3.30;;
31848;SDS011;18414;59.352;18.152;2022-10-31T06:30:53;29.77;;;4.43;;
31848;SDS011;18414;59.352;18.152;2022-10-31T06:33:19;20.27;;;3.57;;
31848;SDS011;18414;59.352;18.152;2022-10-31T06:35:44;60.83;;;4.80;;
31848;SDS011;18414;59.352;18.152;2022-10-31T06:38:11;20.33;;;3.27;;
31848;SDS011;18414;59.352;18.152;2022-10-31T06:40:37;31.43;;;3.47;;
31848;SDS011;18414;59.352;18.152;2022-10-31T06:43:02;96.23;;;5.17;;
31848;SDS011;18414;59.352;18.152;2022-10-31T06:45:29;58.77;;;4.43;;
31848;SDS011;18414;59.352;18.152;2022-10-31T06:47:54;71.47;;;4.50;;
31848;SDS011;18414;59.352;18.152;2022-10-31T06:50:21;82.20;;;4.87;;
31848;SDS011;18414;59.352;18.152;2022-10-31T06:52:53;84.17;;;4.50;;
31848;SDS011;18414;59.352;18.152;2022-10-31T06:55:20;50.97;;;5.20;;
31848;SDS011;18414;59.352;18.152;2022-10-31T06:57:53;56.57;;;3.57;;
31848;SDS011;18414;59.352;18.152;2022-10-31T07:00:20;45.67;;;3.73;;
31848;SDS011;18414;59.352;18.152;2022-10-31T07:03:19;38.87;;;3.77;;
31848;SDS011;18414;59.352;18.152;2022-10-31T07:05:38;58.47;;;5.00;;
31848;SDS011;18414;59.352;18.152;2022-10-31T07:08:05;39.77;;;4.07;;
31848;SDS011;18414;59.352;18.152;2022-10-31T07:10:32;33.97;;;3.90;;
31848;SDS011;18414;59.352;18.152;2022-10-31T07:12:59;28.43;;;3.43;;
31848;SDS011;18414;59.352;18.152;2022-10-31T07:15:26;37.50;;;4.30;;
31848;SDS011;18414;59.352;18.152;2022-10-31T07:17:52;24.67;;;3.97;;
31848;SDS011;18414;59.352;18.152;2022-10-31T07:20:18;26.30;;;4.43;;
31848;SDS011;18414;59.352;18.152;2022-10-31T07:22:43;23.63;;;4.50;;
31848;SDS011;18414;59.352;18.152;2022-10-31T07:25:09;21.07;;;3.57;;
31848;SDS011;18414;59.352;18.152;2022-10-31T07:27:38;8.20;;;1.80;;
31848;SDS011;18414;59.352;18.152;2022-10-31T07:30:04;16.60;;;3.93;;
31848;SDS011;18414;59.352;18.152;2022-10-31T07:32:41;21.23;;;3.97;;
31848;SDS011;18414;59.352;18.152;2022-10-31T07:35:09;24.80;;;4.03;;
31848;SDS011;18414;59.352;18.152;2022-10-31T07:37:36;25.27;;;4.70;;
31848;SDS011;18414;59.352;18.152;2022-10-31T07:40:02;18.87;;;4.70;;
31848;SDS011;18414;59.352;18.152;2022-10-31T07:42:28;34.27;;;5.83;;
31848;SDS011;18414;59.352;18.152;2022-10-31T07:44:55;19.60;;;4.37;;
31848;SDS011;18414;59.352;18.152;2022-10-31T07:47:20;22.87;;;4.33;;
31848;SDS011;18414;59.352;18.152;2022-10-31T07:49:46;25.93;;;3.77;;
31848;SDS011;18414;59.352;18.152;2022-10-31T07:52:11;21.00;;;4.50;;
31848;SDS011;18414;59.352;18.152;2022-10-31T07:54:36;22.63;;;4.10;;
31848;SDS011;18414;59.352;18.152;2022-10-31T07:57:02;15.40;;;3.50;;
31848;SDS011;18414;59.352;18.152;2022-10-31T07:59:28;14.90;;;5.30;;
31848;SDS011;18414;59.352;18.152;2022-10-31T08:01:53;10.27;;;4.77;;
31848;SDS011;18414;59.352;18.152;2022-10-31T08:04:18;26.90;;;5.83;;
31848;SDS011;18414;59.352;18.152;2022-10-31T08:06:44;21.27;;;4.83;;
31848;SDS011;18414;59.352;18.152;2022-10-31T08:09:09;18.57;;;5.30;;
31848;SDS011;18414;59.352;18.152;2022-10-31T08:11:34;20.73;;;4.67;;
31848;SDS011;18414;59.352;18.152;2022-10-31T08:14:00;10.13;;;5.40;;
31848;SDS011;18414;59.352;18.152;2022-10-31T08:16:26;15.17;;;5.60;;
31848;SDS011;18414;59.352;18.152;2022-10-31T08:18:51;12.27;;;4.80;;
31848;SDS011;18414;59.352;18.152;2022-10-31T08:21:18;11.03;;;5.27;;
31848;SDS011;18414;59.352;18.152;2022-10-31T08:23:44;11.33;;;5.07;;
31848;SDS011;18414;59.352;18.152;2022-10-31T08:26:09;10.53;;;5.10;;
31848;SDS011;18414;59.352;18.152;2022-10-31T08:28:34;12.57;;;5.40;;
31848;SDS011;18414;59.352;18.152;2022-10-31T08:31:00;12.03;;;5.00;;
31848;SDS011;18414;59.352;18.152;2022-10-31T08:33:25;7.87;;;4.03;;
31848;SDS011;18414;59.352;18.152;2022-10-31T08:35:52;9.03;;;5.40;;
31848;SDS011;18414;59.352;18.152;2022-10-31T08:38:17;10.43;;;6.10;;
31848;SDS011;18414;59.352;18.152;2022-10-31T08:40:42;9.73;;;5.20;;
31848;SDS011;18414;59.352;18.152;2022-10-31T08:43:12;6.50;;;4.20;;
31848;SDS011;18414;59.352;18.152;2022-10-31T08:45:38;9.23;;;4.97;;
31848;SDS011;18414;59.352;18.152;2022-10-31T08:48:05;12.63;;;5.87;;
31848;SDS011;18414;59.352;18.152;2022-10-31T08:50:32;10.17;;;4.50;;
31848;SDS011;18414;59.352;18.152;2022-10-31T08:53:05;7.30;;;3.63;;
31848;SDS011;18414;59.352;18.152;2022-10-31T08:55:33;8.87;;;4.80;;
31848;SDS011;18414;59.352;18.152;2022-10-31T08:57:59;9.43;;;5.23;;
31848;SDS011;18414;59.352;18.152;2022-10-31T09:00:25;10.97;;;5.70;;
31848;SDS011;18414;59.352;18.152;2022-10-31T09:02:56;11.47;;;5.37;;
31848;SDS011;18414;59.352;18.152;2022-10-31T09:05:26;9.90;;;5.70;;
31848;SDS011;18414;59.352;18.152;2022-10-31T09:07:55;13.40;;;4.87;;
31848;SDS011;18414;59.352;18.152;2022-10-31T09:10:22;11.80;;;6.00;;
31848;SDS011;18414;59.352;18.152;2022-10-31T09:12:47;14.77;;;6.80;;
31848;SDS011;18414;59.352;18.152;2022-10-31T09:15:26;14.43;;;6.93;;
31848;SDS011;18414;59.352;18.152;2022-10-31T09:17:52;11.93;;;5.30;;
31848;SDS011;18414;59.352;18.152;2022-10-31T09:20:17;10.97;;;5.30;;
31848;SDS011;18414;59.352;18.152;2022-10-31T09:22:43;9.07;;;4.27;;
31848;SDS011;18414;59.352;18.152;2022-10-31T09:25:09;11.03;;;6.13;;
31848;SDS011;18414;59.352;18.152;2022-10-31T09:27:34;14.63;;;6.50;;
31848;SDS011;18414;59.352;18.152;2022-10-31T09:29:59;9.63;;;5.27;;
31848;SDS011;18414;59.352;18.152;2022-10-31T09:32:25;7.22;;;4.47;;
31848;SDS011;18414;59.352;18.152;2022-10-31T09:34:50;4.90;;;3.30;;
31848;SDS011;18414;59.352;18.152;2022-10-31T09:37:15;10.60;;;5.53;;
31848;SDS011;18414;59.352;18.152;2022-10-31T09:39:41;7.10;;;4.03;;
31848;SDS011;18414;59.352;18.152;2022-10-31T09:45:03;5.72;;;3.97;;
31848;SDS011;18414;59.352;18.152;2022-10-31T09:48:03;6.83;;;4.30;;
31848;SDS011;18414;59.352;18.152;2022-10-31T09:50:46;8.63;;;4.63;;
31848;SDS011;18414;59.352;18.152;2022-10-31T09:53:29;8.15;;;4.15;;
31848;SDS011;18414;59.352;18.152;2022-10-31T09:56:12;10.70;;;5.35;;
31848;SDS011;18414;59.352;18.152;2022-10-31T09:58:40;7.95;;;4.53;;
31848;SDS011;18414;59.352;18.152;2022-10-31T10:01:09;7.72;;;4.85;;
31848;SDS011;18414;59.352;18.152;2022-10-31T10:03:44;8.77;;;5.57;;
31848;SDS011;18414;59.352;18.152;2022-10-31T10:06:17;6.93;;;4.40;;
31848;SDS011;18414;59.352;18.152;2022-10-31T10:08:44;6.53;;;4.57;;
31848;SDS011;18414;59.352;18.152;2022-10-31T10:16:32;10.63;;;5.43;;
31848;SDS011;18414;59.352;18.152;2022-10-31T10:24:33;6.95;;;4.78;;
31848;SDS011;18414;59.352;18.152;2022-10-31T10:28:12;10.05;;;5.13;;
31848;SDS011;18414;59.352;18.152;2022-10-31T10:30:17;6.75;;;5.03;;
31848;SDS011;18414;59.352;18.152;2022-10-31T10:32:49;5.45;;;3.90;;
31848;SDS011;18414;59.352;18.152;2022-10-31T10:37:49;7.43;;;5.10;;
31848;SDS011;18414;59.352;18.152;2022-10-31T10:40:19;8.43;;;5.82;;
31848;SDS011;18414;59.352;18.152;2022-10-31T10:42:53;9.00;;;5.38;;
31848;SDS011;18414;59.352;18.152;2022-10-31T10:45:41;8.32;;;5.05;;
31848;SDS011;18414;59.352;18.152;2022-10-31T10:48:41;10.37;;;5.80;;
31848;SDS011;18414;59.352;18.152;2022-10-31T10:51:22;5.45;;;3.88;;
31848;SDS011;18414;59.352;18.152;2022-10-31T10:54:13;10.52;;;5.93;;
31848;SDS011;18414;59.352;18.152;2022-10-31T10:59:29;8.98;;;5.78;;
31848;SDS011;18414;59.352;18.152;2022-10-31T11:01:55;8.35;;;6.10;;
31848;SDS011;18414;59.352;18.152;2022-10-31T11:07:02;7.95;;;5.53;;
31848;SDS011;18414;59.352;18.152;2022-10-31T11:09:29;7.82;;;4.82;;
31848;SDS011;18414;59.352;18.152;2022-10-31T11:11:55;5.55;;;4.18;;
31848;SDS011;18414;59.352;18.152;2022-10-31T11:14:21;9.75;;;5.78;;
31848;SDS011;18414;59.352;18.152;2022-10-31T11:16:48;9.25;;;6.07;;
31848;SDS011;18414;59.352;18.152;2022-10-31T11:19:20;7.97;;;5.10;;
31848;SDS011;18414;59.352;18.152;2022-10-31T11:21:48;8.32;;;5.40;;
31848;SDS011;18414;59.352;18.152;2022-10-31T11:24:15;6.53;;;4.68;;
31848;SDS011;18414;59.352;18.152;2022-10-31T11:26:43;8.05;;;6.07;;
31848;SDS011;18414;59.352;18.152;2022-10-31T11:29:15;5.68;;;4.30;;
31848;SDS011;18414;59.352;18.152;2022-10-31T11:31:43;5.63;;;4.15;;
31848;SDS011;18414;59.352;18.152;2022-10-31T11:34:14;9.98;;;7.13;;
31848;SDS011;18414;59.352;18.152;2022-10-31T11:36:44;4.75;;;3.58;;
31848;SDS011;18414;59.352;18.152;2022-10-31T11:39:17;10.77;;;6.50;;
31848;SDS011;18414;59.352;18.152;2022-10-31T11:41:49;5.13;;;4.30;;
31848;SDS011;18414;59.352;18.152;2022-10-31T11:44:20;5.88;;;3.85;;
31848;SDS011;18414;59.352;18.152;2022-10-31T11:46:48;6.60;;;4.93;;
31848;SDS011;18414;59.352;18.152;2022-10-31T11:49:32;6.57;;;4.78;;
31848;SDS011;18414;59.352;18.152;2022-10-31T11:52:06;8.70;;;5.35;;
31848;SDS011;18414;59.352;18.152;2022-10-31T11:54:42;5.47;;;4.25;;
31848;SDS011;18414;59.352;18.152;2022-10-31T11:57:28;7.68;;;5.75;;
31848;SDS011;18414;59.352;18.152;2022-10-31T11:59:56;7.07;;;5.82;;
31848;SDS011;18414;59.352;18.152;2022-10-31T12:02:23;8.70;;;6.35;;
31848;SDS011;18414;59.352;18.152;2022-10-31T12:04:55;8.73;;;6.55;;
31848;SDS011;18414;59.352;18.152;2022-10-31T12:07:23;10.38;;;7.22;;
31848;SDS011;18414;59.352;18.152;2022-10-31T12:09:49;7.97;;;6.28;;
31848;SDS011;18414;59.352;18.152;2022-10-31T12:15:35;8.10;;;5.82;;
31848;SDS011;18414;59.352;18.152;2022-10-31T12:40:16;9.43;;;4.53;;
31848;SDS011;18414;59.352;18.152;2022-10-31T12:48:42;6.53;;;5.13;;
31848;SDS011;18414;59.352;18.152;2022-10-31T12:53:50;7.68;;;5.60;;
31848;SDS011;18414;59.352;18.152;2022-10-31T12:59:34;7.70;;;5.25;;
31848;SDS011;18414;59.352;18.152;2022-10-31T13:04:51;7.25;;;4.45;;
31848;SDS011;18414;59.352;18.152;2022-10-31T13:07:23;6.22;;;4.03;;
31848;SDS011;18414;59.352;18.152;2022-10-31T13:09:58;5.03;;;3.90;;
31848;SDS011;18414;59.352;18.152;2022-10-31T13:12:45;6.68;;;4.65;;
31848;SDS011;18414;59.352;18.152;2022-10-31T13:15:47;7.75;;;5.50;;
31848;SDS011;18414;59.352;18.152;2022-10-31T13:18:11;5.43;;;3.97;;
31848;SDS011;18414;59.352;18.152;2022-10-31T13:20:44;5.28;;;3.08;;
31848;SDS011;18414;59.352;18.152;2022-10-31T13:23:14;9.82;;;6.20;;
31848;SDS011;18414;59.352;18.152;2022-10-31T13:26:01;8.57;;;5.40;;
31848;SDS011;18414;59.352;18.152;2022-10-31T13:28:47;4.68;;;3.42;;
31848;SDS011;18414;59.352;18.152;2022-10-31T13:31:16;6.32;;;3.83;;
31848;SDS011;18414;59.352;18.152;2022-10-31T13:33:46;5.38;;;3.47;;
31848;SDS011;18414;59.352;18.152;2022-10-31T13:38:51;10.50;;;5.68;;
31848;SDS011;18414;59.352;18.152;2022-10-31T13:44:01;9.55;;;4.93;;
31848;SDS011;18414;59.352;18.152;2022-10-31T13:46:41;4.88;;;3.63;;
31848;SDS011;18414;59.352;18.152;2022-10-31T13:57:14;11.75;;;5.55;;
31848;SDS011;18414;59.352;18.152;2022-10-31T13:59:45;5.60;;;4.03;;
31848;SDS011;18414;59.352;18.152;2022-10-31T14:02:14;4.95;;;2.90;;
31848;SDS011;18414;59.352;18.152;2022-10-31T14:04:48;6.63;;;3.75;;
31848;SDS011;18414;59.352;18.152;2022-10-31T14:07:17;6.65;;;4.15;;
31848;SDS011;18414;59.352;18.152;2022-10-31T14:14:57;7.63;;;3.53;;
31848;SDS011;18414;59.352;18.152;2022-10-31T14:17:29;5.40;;;3.85;;
31848;SDS011;18414;59.352;18.152;2022-10-31T14:20:21;4.10;;;3.22;;
31848;SDS011;18414;59.352;18.152;2022-10-31T14:22:47;7.28;;;3.88;;
31848;SDS011;18414;59.352;18.152;2022-10-31T14:25:29;6.72;;;4.18;;
31848;SDS011;18414;59.352;18.152;2022-10-31T14:27:55;8.70;;;4.95;;
31848;SDS011;18414;59.352;18.152;2022-10-31T14:30:25;5.95;;;3.92;;
31848;SDS011;18414;59.352;18.152;2022-10-31T14:32:52;5.35;;;2.85;;
31848;SDS011;18414;59.352;18.152;2022-10-31T14:35:20;6.85;;;4.38;;
31848;SDS011;18414;59.352;18.152;2022-10-31T14:40:48;6.28;;;4.22;;
31848;SDS011;18414;59.352;18.152;2022-10-31T14:43:45;8.00;;;3.55;;
31848;SDS011;18414;59.352;18.152;2022-10-31T14:46:25;7.45;;;3.65;;
31848;SDS011;18414;59.352;18.152;2022-10-31T14:51:55;8.60;;;3.60;;
31848;SDS011;18414;59.352;18.152;2022-10-31T14:57:00;4.38;;;3.30;;
31848;SDS011;18414;59.352;18.152;2022-10-31T14:59:30;11.38;;;4.43;;
31848;SDS011;18414;59.352;18.152;2022-10-31T15:01:59;9.50;;;4.43;;
31848;SDS011;18414;59.352;18.152;2022-10-31T15:04:27;5.60;;;3.28;;
31848;SDS011;18414;59.352;18.152;2022-10-31T15:06:58;5.28;;;3.15;;
31848;SDS011;18414;59.352;18.152;2022-10-31T15:09:28;2.80;;;2.45;;
31848;SDS011;18414;59.352;18.152;2022-10-31T15:11:55;8.32;;;5.10;;
31848;SDS011;18414;59.352;18.152;2022-10-31T15:16:51;6.68;;;4.10;;
31848;SDS011;18414;59.352;18.152;2022-10-31T15:19:21;11.05;;;3.63;;
31848;SDS011;18414;59.352;18.152;2022-10-31T15:21:49;6.93;;;3.70;;
31848;SDS011;18414;59.352;18.152;2022-10-31T15:24:15;6.22;;;3.83;;
31848;SDS011;18414;59.352;18.152;2022-10-31T15:26:45;5.55;;;3.30;;
31848;SDS011;18414;59.352;18.152;2022-10-31T15:29:18;9.38;;;4.50;;
31848;SDS011;18414;59.352;18.152;2022-10-31T15:31:51;7.57;;;3.80;;
31848;SDS011;18414;59.352;18.152;2022-10-31T15:36:48;9.55;;;4.85;;
31848;SDS011;18414;59.352;18.152;2022-10-31T15:39:15;5.13;;;3.20;;
31848;SDS011;18414;59.352;18.152;2022-10-31T15:41:48;5.20;;;3.85;;
31848;SDS011;18414;59.352;18.152;2022-10-31T15:44:23;5.63;;;3.60;;
31848;SDS011;18414;59.352;18.152;2022-10-31T15:49:36;7.18;;;4.95;;
31848;SDS011;18414;59.352;18.152;2022-10-31T15:54:47;6.80;;;4.00;;
31848;SDS011;18414;59.352;18.152;2022-10-31T15:57:15;5.72;;;3.60;;
31848;SDS011;18414;59.352;18.152;2022-10-31T15:59:42;3.63;;;2.47;;
31848;SDS011;18414;59.352;18.152;2022-10-31T16:02:11;8.90;;;4.90;;
31848;SDS011;18414;59.352;18.152;2022-10-31T16:04:47;8.00;;;5.25;;
31848;SDS011;18414;59.352;18.152;2022-10-31T16:07:15;10.52;;;5.13;;
31848;SDS011;18414;59.352;18.152;2022-10-31T16:10:21;8.85;;;5.57;;
31848;SDS011;18414;59.352;18.152;2022-10-31T16:12:46;12.73;;;5.78;;
31848;SDS011;18414;59.352;18.152;2022-10-31T16:15:15;10.05;;;5.60;;
31848;SDS011;18414;59.352;18.152;2022-10-31T16:17:42;11.48;;;5.53;;
31848;SDS011;18414;59.352;18.152;2022-10-31T16:20:23;10.80;;;5.78;;
31848;SDS011;18414;59.352;18.152;2022-10-31T16:22:51;10.00;;;5.53;;
31848;SDS011;18414;59.352;18.152;2022-10-31T16:25:24;9.43;;;5.57;;
31848;SDS011;18414;59.352;18.152;2022-10-31T16:27:52;9.98;;;5.68;;
31848;SDS011;18414;59.352;18.152;2022-10-31T16:30:35;11.07;;;5.73;;
31848;SDS011;18414;59.352;18.152;2022-10-31T16:33:19;8.27;;;4.90;;
31848;SDS011;18414;59.352;18.152;2022-10-31T16:36:28;10.70;;;5.47;;
31848;SDS011;18414;59.352;18.152;2022-10-31T16:38:52;11.23;;;5.75;;
31848;SDS011;18414;59.352;18.152;2022-10-31T16:41:18;9.38;;;5.68;;
31848;SDS011;18414;59.352;18.152;2022-10-31T16:43:43;10.55;;;6.20;;
31848;SDS011;18414;59.352;18.152;2022-10-31T16:46:12;8.30;;;5.70;;
31848;SDS011;18414;59.352;18.152;2022-10-31T16:48:40;12.53;;;5.40;;
31848;SDS011;18414;59.352;18.152;2022-10-31T16:51:06;8.50;;;5.23;;
31848;SDS011;18414;59.352;18.152;2022-10-31T16:53:32;10.27;;;5.43;;